sensor_id;sensor_type;location;lat;lon;timestamp;P1;durP1;ratioP1;P2;durP2;ratioP2
43345;SDS011;28937;51.160;4.146;2022-12-29T00:02:11;0.85;;;0.20;;
43345;SDS011;28937;51.160;4.146;2022-12-29T00:04:37;1.15;;;0.20;;
43345;SDS011;28937;51.160;4.146;2022-12-29T00:07:03;0.90;;;0.30;;
43345;SDS011;28937;51.160;4.146;2022-12-29T00:09:32;1.17;;;0.20;;
43345;SDS011;28937;51.160;4.146;2022-12-29T00:11:58;1.38;;;0.40;;
43345;SDS011;28937;51.160;4.146;2022-12-29T00:14:24;0.40;;;0.20;;
43345;SDS011;28937;51.160;4.146;2022-12-29T00:17:09;2.05;;;0.30;;
43345;SDS011;28937;51.160;4.146;2022-12-29T00:19:34;0.82;;;0.32;;
43345;SDS011;28937;51.160;4.146;2022-12-29T00:22:18;1.75;;;0.40;;
43345;SDS011;28937;51.160;4.146;2022-12-29T00:25:03;0.68;;;0.28;;
43345;SDS011;28937;51.160;4.146;2022-12-29T00:27:48;0.82;;;0.32;;
43345;SDS011;28937;51.160;4.146;2022-12-29T00:30:32;1.75;;;0.40;;
43345;SDS011;28937;51.160;4.146;2022-12-29T00:33:17;1.00;;;0.30;;
43345;SDS011;28937;51.160;4.146;2022-12-29T00:38:34;0.60;;;0.20;;
43345;SDS011;28937;51.160;4.146;2022-12-29T00:41:21;0.68;;;0.25;;
43345;SDS011;28937;51.160;4.146;2022-12-29T00:44:05;2.00;;;0.30;;
43345;SDS011;28937;51.160;4.146;2022-12-29T00:46:32;1.67;;;0.20;;
43345;SDS011;28937;51.160;4.146;2022-12-29T00:48:59;0.75;;;0.25;;
43345;SDS011;28937;51.160;4.146;2022-12-29T00:51:43;1.13;;;0.40;;
43345;SDS011;28937;51.160;4.146;2022-12-29T00:54:09;1.45;;;0.55;;
43345;SDS011;28937;51.160;4.146;2022-12-29T00:56:35;1.40;;;0.40;;
43345;SDS011;28937;51.160;4.146;2022-12-29T00:59:01;0.85;;;0.25;;
43345;SDS011;28937;51.160;4.146;2022-12-29T01:01:31;0.80;;;0.22;;
43345;SDS011;28937;51.160;4.146;2022-12-29T01:03:58;1.02;;;0.38;;
43345;SDS011;28937;51.160;4.146;2022-12-29T01:06:23;2.92;;;0.30;;
43345;SDS011;28937;51.160;4.146;2022-12-29T01:08:49;0.85;;;0.30;;
43345;SDS011;28937;51.160;4.146;2022-12-29T01:11:35;0.73;;;0.20;;
43345;SDS011;28937;51.160;4.146;2022-12-29T01:14:01;2.17;;;0.30;;
43345;SDS011;28937;51.160;4.146;2022-12-29T01:16:26;1.42;;;0.20;;
43345;SDS011;28937;51.160;4.146;2022-12-29T01:18:52;1.30;;;0.30;;
43345;SDS011;28937;51.160;4.146;2022-12-29T01:21:18;1.77;;;0.50;;
43345;SDS011;28937;51.160;4.146;2022-12-29T01:23:44;1.55;;;0.20;;
43345;SDS011;28937;51.160;4.146;2022-12-29T01:26:13;1.48;;;0.28;;
43345;SDS011;28937;51.160;4.146;2022-12-29T01:28:40;1.20;;;0.20;;
43345;SDS011;28937;51.160;4.146;2022-12-29T01:31:07;2.28;;;0.35;;
43345;SDS011;28937;51.160;4.146;2022-12-29T01:33:33;1.23;;;0.30;;
43345;SDS011;28937;51.160;4.146;2022-12-29T01:36:00;2.45;;;0.47;;
43345;SDS011;28937;51.160;4.146;2022-12-29T01:38:30;2.00;;;0.80;;
43345;SDS011;28937;51.160;4.146;2022-12-29T01:40:56;3.30;;;0.20;;
43345;SDS011;28937;51.160;4.146;2022-12-29T01:43:37;3.13;;;0.40;;
43345;SDS011;28937;51.160;4.146;2022-12-29T01:46:04;2.58;;;0.52;;
43345;SDS011;28937;51.160;4.146;2022-12-29T01:51:39;4.28;;;0.40;;
43345;SDS011;28937;51.160;4.146;2022-12-29T01:54:09;1.25;;;0.60;;
43345;SDS011;28937;51.160;4.146;2022-12-29T01:56:38;3.08;;;0.70;;
43345;SDS011;28937;51.160;4.146;2022-12-29T01:59:05;3.08;;;0.63;;
43345;SDS011;28937;51.160;4.146;2022-12-29T02:01:37;3.75;;;0.57;;
43345;SDS011;28937;51.160;4.146;2022-12-29T02:04:03;3.45;;;0.45;;
43345;SDS011;28937;51.160;4.146;2022-12-29T02:06:30;2.50;;;0.30;;
43345;SDS011;28937;51.160;4.146;2022-12-29T02:08:59;2.90;;;0.45;;
43345;SDS011;28937;51.160;4.146;2022-12-29T02:11:26;2.25;;;0.30;;
43345;SDS011;28937;51.160;4.146;2022-12-29T02:13:53;2.13;;;0.38;;
43345;SDS011;28937;51.160;4.146;2022-12-29T02:16:30;2.97;;;0.65;;
43345;SDS011;28937;51.160;4.146;2022-12-29T02:21:59;2.55;;;0.57;;
43345;SDS011;28937;51.160;4.146;2022-12-29T02:27:34;1.67;;;0.38;;
43345;SDS011;28937;51.160;4.146;2022-12-29T02:38:55;1.73;;;0.50;;
43345;SDS011;28937;51.160;4.146;2022-12-29T02:41:31;1.58;;;0.43;;
43345;SDS011;28937;51.160;4.146;2022-12-29T02:46:47;2.97;;;0.50;;
43345;SDS011;28937;51.160;4.146;2022-12-29T02:49:42;1.73;;;0.32;;
43345;SDS011;28937;51.160;4.146;2022-12-29T02:52:22;2.47;;;0.40;;
43345;SDS011;28937;51.160;4.146;2022-12-29T02:54:55;1.90;;;0.57;;
43345;SDS011;28937;51.160;4.146;2022-12-29T02:59:47;2.08;;;0.50;;
43345;SDS011;28937;51.160;4.146;2022-12-29T03:02:24;5.28;;;0.73;;
43345;SDS011;28937;51.160;4.146;2022-12-29T03:19:20;4.10;;;0.70;;
43345;SDS011;28937;51.160;4.146;2022-12-29T03:21:59;1.58;;;0.30;;
43345;SDS011;28937;51.160;4.146;2022-12-29T03:24:51;3.05;;;0.30;;
43345;SDS011;28937;51.160;4.146;2022-12-29T03:27:24;2.15;;;0.30;;
43345;SDS011;28937;51.160;4.146;2022-12-29T03:29:55;3.05;;;0.38;;
43345;SDS011;28937;51.160;4.146;2022-12-29T03:32:29;3.57;;;0.70;;
43345;SDS011;28937;51.160;4.146;2022-12-29T03:34:58;2.40;;;0.50;;
43345;SDS011;28937;51.160;4.146;2022-12-29T03:37:26;4.35;;;0.60;;
43345;SDS011;28937;51.160;4.146;2022-12-29T03:39:56;4.65;;;1.08;;
43345;SDS011;28937;51.160;4.146;2022-12-29T03:42:23;2.42;;;0.47;;
43345;SDS011;28937;51.160;4.146;2022-12-29T03:44:55;1.70;;;0.30;;
43345;SDS011;28937;51.160;4.146;2022-12-29T03:47:22;3.60;;;0.35;;
43345;SDS011;28937;51.160;4.146;2022-12-29T03:49:49;4.15;;;0.50;;
43345;SDS011;28937;51.160;4.146;2022-12-29T03:52:15;2.53;;;0.43;;
43345;SDS011;28937;51.160;4.146;2022-12-29T03:54:41;3.38;;;0.57;;
43345;SDS011;28937;51.160;4.146;2022-12-29T03:57:07;3.55;;;0.50;;
43345;SDS011;28937;51.160;4.146;2022-12-29T03:59:34;3.22;;;0.68;;
43345;SDS011;28937;51.160;4.146;2022-12-29T04:01:59;3.38;;;0.77;;
43345;SDS011;28937;51.160;4.146;2022-12-29T04:04:25;3.40;;;0.63;;
43345;SDS011;28937;51.160;4.146;2022-12-29T04:06:50;4.28;;;0.77;;
43345;SDS011;28937;51.160;4.146;2022-12-29T04:09:16;4.00;;;0.70;;
43345;SDS011;28937;51.160;4.146;2022-12-29T04:11:42;5.00;;;0.40;;
43345;SDS011;28937;51.160;4.146;2022-12-29T04:14:07;3.47;;;0.75;;
43345;SDS011;28937;51.160;4.146;2022-12-29T04:16:33;2.13;;;0.50;;
43345;SDS011;28937;51.160;4.146;2022-12-29T04:19:01;3.33;;;0.65;;
43345;SDS011;28937;51.160;4.146;2022-12-29T04:21:26;5.43;;;0.70;;
43345;SDS011;28937;51.160;4.146;2022-12-29T04:23:52;3.80;;;0.40;;
43345;SDS011;28937;51.160;4.146;2022-12-29T04:26:18;3.30;;;0.60;;
43345;SDS011;28937;51.160;4.146;2022-12-29T04:28:43;4.78;;;0.90;;
43345;SDS011;28937;51.160;4.146;2022-12-29T04:31:09;2.70;;;0.82;;
43345;SDS011;28937;51.160;4.146;2022-12-29T04:33:35;3.70;;;0.60;;
43345;SDS011;28937;51.160;4.146;2022-12-29T04:36:00;6.32;;;0.90;;
43345;SDS011;28937;51.160;4.146;2022-12-29T04:38:26;4.45;;;0.90;;
43345;SDS011;28937;51.160;4.146;2022-12-29T04:40:51;3.47;;;0.68;;
43345;SDS011;28937;51.160;4.146;2022-12-29T04:43:17;6.03;;;1.00;;
43345;SDS011;28937;51.160;4.146;2022-12-29T04:45:47;2.53;;;0.63;;
43345;SDS011;28937;51.160;4.146;2022-12-29T04:48:13;4.38;;;0.90;;
43345;SDS011;28937;51.160;4.146;2022-12-29T04:50:39;4.47;;;0.73;;
43345;SDS011;28937;51.160;4.146;2022-12-29T04:53:05;4.03;;;0.93;;
43345;SDS011;28937;51.160;4.146;2022-12-29T04:55:31;5.28;;;1.05;;
43345;SDS011;28937;51.160;4.146;2022-12-29T04:57:56;6.55;;;0.93;;
43345;SDS011;28937;51.160;4.146;2022-12-29T05:00:22;4.18;;;0.70;;
43345;SDS011;28937;51.160;4.146;2022-12-29T05:02:48;6.90;;;1.10;;
43345;SDS011;28937;51.160;4.146;2022-12-29T05:05:14;3.65;;;0.75;;
43345;SDS011;28937;51.160;4.146;2022-12-29T05:07:40;3.42;;;0.85;;
43345;SDS011;28937;51.160;4.146;2022-12-29T05:10:06;4.75;;;1.15;;
43345;SDS011;28937;51.160;4.146;2022-12-29T05:12:33;3.47;;;0.73;;
43345;SDS011;28937;51.160;4.146;2022-12-29T05:14:59;4.15;;;0.90;;
43345;SDS011;28937;51.160;4.146;2022-12-29T05:17:25;4.35;;;0.65;;
43345;SDS011;28937;51.160;4.146;2022-12-29T05:19:51;8.15;;;1.20;;
43345;SDS011;28937;51.160;4.146;2022-12-29T05:22:17;5.07;;;0.90;;
43345;SDS011;28937;51.160;4.146;2022-12-29T05:24:43;4.70;;;0.90;;
43345;SDS011;28937;51.160;4.146;2022-12-29T05:27:08;4.78;;;0.85;;
43345;SDS011;28937;51.160;4.146;2022-12-29T05:29:34;3.08;;;0.90;;
43345;SDS011;28937;51.160;4.146;2022-12-29T05:31:59;2.33;;;0.50;;
43345;SDS011;28937;51.160;4.146;2022-12-29T05:34:25;3.70;;;0.70;;
43345;SDS011;28937;51.160;4.146;2022-12-29T05:36:51;4.45;;;0.70;;
43345;SDS011;28937;51.160;4.146;2022-12-29T05:39:16;3.97;;;0.90;;
43345;SDS011;28937;51.160;4.146;2022-12-29T05:41:42;4.90;;;0.93;;
43345;SDS011;28937;51.160;4.146;2022-12-29T05:44:07;2.47;;;0.50;;
43345;SDS011;28937;51.160;4.146;2022-12-29T05:46:35;2.45;;;0.77;;
43345;SDS011;28937;51.160;4.146;2022-12-29T05:49:01;5.30;;;0.60;;
43345;SDS011;28937;51.160;4.146;2022-12-29T05:51:26;4.45;;;1.00;;
43345;SDS011;28937;51.160;4.146;2022-12-29T05:53:52;5.63;;;0.75;;
43345;SDS011;28937;51.160;4.146;2022-12-29T05:56:18;3.40;;;0.63;;
43345;SDS011;28937;51.160;4.146;2022-12-29T05:58:43;3.88;;;0.82;;
43345;SDS011;28937;51.160;4.146;2022-12-29T06:01:09;3.78;;;0.57;;
43345;SDS011;28937;51.160;4.146;2022-12-29T06:03:34;5.20;;;0.95;;
43345;SDS011;28937;51.160;4.146;2022-12-29T06:06:00;4.53;;;0.52;;
43345;SDS011;28937;51.160;4.146;2022-12-29T06:08:26;4.68;;;0.73;;
43345;SDS011;28937;51.160;4.146;2022-12-29T06:10:51;4.65;;;0.98;;
43345;SDS011;28937;51.160;4.146;2022-12-29T06:13:17;4.13;;;0.98;;
43345;SDS011;28937;51.160;4.146;2022-12-29T06:15:43;7.93;;;1.08;;
43345;SDS011;28937;51.160;4.146;2022-12-29T06:18:08;4.72;;;0.82;;
43345;SDS011;28937;51.160;4.146;2022-12-29T06:20:34;3.92;;;0.77;;
43345;SDS011;28937;51.160;4.146;2022-12-29T06:23:00;3.08;;;0.90;;
43345;SDS011;28937;51.160;4.146;2022-12-29T06:25:25;4.78;;;1.00;;
43345;SDS011;28937;51.160;4.146;2022-12-29T06:27:51;5.07;;;1.00;;
43345;SDS011;28937;51.160;4.146;2022-12-29T06:30:16;3.00;;;0.52;;
43345;SDS011;28937;51.160;4.146;2022-12-29T06:32:42;2.70;;;0.60;;
43345;SDS011;28937;51.160;4.146;2022-12-29T06:35:10;4.78;;;1.13;;
43345;SDS011;28937;51.160;4.146;2022-12-29T06:37:35;6.00;;;0.93;;
43345;SDS011;28937;51.160;4.146;2022-12-29T06:40:01;4.38;;;0.82;;
43345;SDS011;28937;51.160;4.146;2022-12-29T06:42:27;4.25;;;1.20;;
43345;SDS011;28937;51.160;4.146;2022-12-29T06:44:52;6.22;;;1.30;;
43345;SDS011;28937;51.160;4.146;2022-12-29T06:47:18;7.13;;;1.33;;
43345;SDS011;28937;51.160;4.146;2022-12-29T06:49:44;5.85;;;1.02;;
43345;SDS011;28937;51.160;4.146;2022-12-29T06:52:09;4.13;;;0.75;;
43345;SDS011;28937;51.160;4.146;2022-12-29T06:54:35;5.88;;;0.75;;
43345;SDS011;28937;51.160;4.146;2022-12-29T06:57:01;7.38;;;1.40;;
43345;SDS011;28937;51.160;4.146;2022-12-29T06:59:26;6.10;;;0.80;;
43345;SDS011;28937;51.160;4.146;2022-12-29T07:01:52;6.45;;;1.02;;
43345;SDS011;28937;51.160;4.146;2022-12-29T07:04:17;10.73;;;1.38;;
43345;SDS011;28937;51.160;4.146;2022-12-29T07:06:43;6.30;;;1.33;;
43345;SDS011;28937;51.160;4.146;2022-12-29T07:09:09;6.03;;;1.00;;
43345;SDS011;28937;51.160;4.146;2022-12-29T07:11:35;5.13;;;1.17;;
43345;SDS011;28937;51.160;4.146;2022-12-29T07:14:01;7.95;;;1.30;;
43345;SDS011;28937;51.160;4.146;2022-12-29T07:16:27;5.53;;;1.10;;
43345;SDS011;28937;51.160;4.146;2022-12-29T07:18:54;6.13;;;1.15;;
43345;SDS011;28937;51.160;4.146;2022-12-29T07:21:20;7.18;;;1.63;;
43345;SDS011;28937;51.160;4.146;2022-12-29T07:23:45;10.98;;;2.20;;
43345;SDS011;28937;51.160;4.146;2022-12-29T07:26:12;4.95;;;1.35;;
43345;SDS011;28937;51.160;4.146;2022-12-29T07:28:39;9.07;;;1.40;;
43345;SDS011;28937;51.160;4.146;2022-12-29T07:31:05;4.85;;;1.02;;
43345;SDS011;28937;51.160;4.146;2022-12-29T07:33:31;11.60;;;1.70;;
43345;SDS011;28937;51.160;4.146;2022-12-29T07:35:57;10.27;;;2.10;;
43345;SDS011;28937;51.160;4.146;2022-12-29T07:38:23;8.60;;;1.60;;
43345;SDS011;28937;51.160;4.146;2022-12-29T07:40:49;6.20;;;1.33;;
43345;SDS011;28937;51.160;4.146;2022-12-29T07:43:15;12.57;;;1.70;;
43345;SDS011;28937;51.160;4.146;2022-12-29T07:45:40;10.30;;;1.55;;
43345;SDS011;28937;51.160;4.146;2022-12-29T07:48:06;8.98;;;1.75;;
43345;SDS011;28937;51.160;4.146;2022-12-29T07:50:33;13.40;;;1.98;;
43345;SDS011;28937;51.160;4.146;2022-12-29T07:52:59;9.25;;;1.40;;
43345;SDS011;28937;51.160;4.146;2022-12-29T07:55:25;11.82;;;1.80;;
43345;SDS011;28937;51.160;4.146;2022-12-29T07:57:52;10.23;;;1.20;;
43345;SDS011;28937;51.160;4.146;2022-12-29T08:00:19;7.88;;;2.05;;
43345;SDS011;28937;51.160;4.146;2022-12-29T08:02:45;13.35;;;1.90;;
43345;SDS011;28937;51.160;4.146;2022-12-29T08:05:11;8.95;;;2.13;;
43345;SDS011;28937;51.160;4.146;2022-12-29T08:07:36;6.47;;;1.40;;
43345;SDS011;28937;51.160;4.146;2022-12-29T08:10:02;7.95;;;1.30;;
43345;SDS011;28937;51.160;4.146;2022-12-29T08:12:28;11.65;;;2.00;;
43345;SDS011;28937;51.160;4.146;2022-12-29T08:14:54;11.18;;;2.00;;
43345;SDS011;28937;51.160;4.146;2022-12-29T08:17:20;14.25;;;2.05;;
43345;SDS011;28937;51.160;4.146;2022-12-29T08:19:45;6.22;;;1.30;;
43345;SDS011;28937;51.160;4.146;2022-12-29T08:22:12;13.35;;;1.88;;
43345;SDS011;28937;51.160;4.146;2022-12-29T08:24:39;11.02;;;1.85;;
43345;SDS011;28937;51.160;4.146;2022-12-29T08:27:04;8.52;;;1.50;;
43345;SDS011;28937;51.160;4.146;2022-12-29T08:29:30;10.98;;;1.63;;
43345;SDS011;28937;51.160;4.146;2022-12-29T08:31:55;10.23;;;1.90;;
43345;SDS011;28937;51.160;4.146;2022-12-29T08:34:21;7.88;;;2.03;;
43345;SDS011;28937;51.160;4.146;2022-12-29T08:36:47;9.88;;;1.67;;
43345;SDS011;28937;51.160;4.146;2022-12-29T08:39:12;10.82;;;1.48;;
43345;SDS011;28937;51.160;4.146;2022-12-29T08:41:38;8.43;;;1.30;;
43345;SDS011;28937;51.160;4.146;2022-12-29T08:44:04;6.93;;;1.35;;
43345;SDS011;28937;51.160;4.146;2022-12-29T08:46:30;8.57;;;1.88;;
43345;SDS011;28937;51.160;4.146;2022-12-29T08:48:55;10.23;;;2.10;;
43345;SDS011;28937;51.160;4.146;2022-12-29T08:51:21;6.85;;;1.42;;
43345;SDS011;28937;51.160;4.146;2022-12-29T08:53:46;9.13;;;1.70;;
43345;SDS011;28937;51.160;4.146;2022-12-29T08:56:12;9.18;;;1.58;;
43345;SDS011;28937;51.160;4.146;2022-12-29T08:58:38;9.70;;;2.10;;
43345;SDS011;28937;51.160;4.146;2022-12-29T09:01:03;7.38;;;1.52;;
43345;SDS011;28937;51.160;4.146;2022-12-29T09:03:29;5.32;;;1.40;;
43345;SDS011;28937;51.160;4.146;2022-12-29T09:05:55;6.18;;;1.70;;
43345;SDS011;28937;51.160;4.146;2022-12-29T09:08:21;8.35;;;1.67;;
43345;SDS011;28937;51.160;4.146;2022-12-29T09:10:47;6.97;;;1.45;;
43345;SDS011;28937;51.160;4.146;2022-12-29T09:13:14;8.52;;;1.50;;
43345;SDS011;28937;51.160;4.146;2022-12-29T09:15:40;6.20;;;0.98;;
43345;SDS011;28937;51.160;4.146;2022-12-29T09:18:06;7.53;;;1.27;;
43345;SDS011;28937;51.160;4.146;2022-12-29T09:20:33;8.25;;;1.23;;
43345;SDS011;28937;51.160;4.146;2022-12-29T09:22:59;6.88;;;1.77;;
43345;SDS011;28937;51.160;4.146;2022-12-29T09:25:25;8.98;;;1.42;;
43345;SDS011;28937;51.160;4.146;2022-12-29T09:27:51;7.70;;;2.10;;
43345;SDS011;28937;51.160;4.146;2022-12-29T09:30:20;6.32;;;1.33;;
43345;SDS011;28937;51.160;4.146;2022-12-29T09:32:48;6.70;;;1.42;;
43345;SDS011;28937;51.160;4.146;2022-12-29T09:35:14;5.82;;;1.35;;
43345;SDS011;28937;51.160;4.146;2022-12-29T09:37:40;7.13;;;1.67;;
43345;SDS011;28937;51.160;4.146;2022-12-29T09:40:06;7.55;;;1.00;;
43345;SDS011;28937;51.160;4.146;2022-12-29T09:42:53;7.68;;;2.03;;
43345;SDS011;28937;51.160;4.146;2022-12-29T09:45:43;7.05;;;1.48;;
43345;SDS011;28937;51.160;4.146;2022-12-29T09:48:17;8.75;;;2.25;;
43345;SDS011;28937;51.160;4.146;2022-12-29T09:50:49;9.35;;;1.60;;
43345;SDS011;28937;51.160;4.146;2022-12-29T09:55:51;8.60;;;1.67;;
43345;SDS011;28937;51.160;4.146;2022-12-29T09:58:36;6.53;;;1.67;;
43345;SDS011;28937;51.160;4.146;2022-12-29T10:01:07;6.90;;;1.40;;
43345;SDS011;28937;51.160;4.146;2022-12-29T10:03:57;9.15;;;2.17;;
43345;SDS011;28937;51.160;4.146;2022-12-29T10:09:06;7.22;;;1.60;;
43345;SDS011;28937;51.160;4.146;2022-12-29T10:14:41;7.88;;;1.75;;
43345;SDS011;28937;51.160;4.146;2022-12-29T10:17:44;9.15;;;1.85;;
43345;SDS011;28937;51.160;4.146;2022-12-29T10:20:48;6.82;;;2.10;;
43345;SDS011;28937;51.160;4.146;2022-12-29T10:25:53;6.57;;;1.42;;
43345;SDS011;28937;51.160;4.146;2022-12-29T10:28:24;8.23;;;1.60;;
43345;SDS011;28937;51.160;4.146;2022-12-29T10:31:15;11.73;;;2.30;;
43345;SDS011;28937;51.160;4.146;2022-12-29T10:33:44;8.80;;;1.98;;
43345;SDS011;28937;51.160;4.146;2022-12-29T10:36:17;8.05;;;1.50;;
43345;SDS011;28937;51.160;4.146;2022-12-29T10:38:50;7.30;;;1.73;;
43345;SDS011;28937;51.160;4.146;2022-12-29T10:41:28;8.32;;;1.45;;
43345;SDS011;28937;51.160;4.146;2022-12-29T10:44:02;9.43;;;1.88;;
43345;SDS011;28937;51.160;4.146;2022-12-29T10:46:28;7.30;;;1.45;;
43345;SDS011;28937;51.160;4.146;2022-12-29T10:51:34;8.35;;;1.83;;
43345;SDS011;28937;51.160;4.146;2022-12-29T10:54:04;5.63;;;2.00;;
43345;SDS011;28937;51.160;4.146;2022-12-29T10:56:43;6.88;;;1.88;;
43345;SDS011;28937;51.160;4.146;2022-12-29T10:59:27;6.32;;;1.60;;
43345;SDS011;28937;51.160;4.146;2022-12-29T11:07:32;8.43;;;2.17;;
43345;SDS011;28937;51.160;4.146;2022-12-29T11:12:42;5.97;;;1.80;;
43345;SDS011;28937;51.160;4.146;2022-12-29T11:15:24;9.52;;;1.95;;
43345;SDS011;28937;51.160;4.146;2022-12-29T11:17:50;7.22;;;1.70;;
43345;SDS011;28937;51.160;4.146;2022-12-29T11:20:34;6.50;;;1.80;;
43345;SDS011;28937;51.160;4.146;2022-12-29T11:23:05;7.05;;;1.52;;
43345;SDS011;28937;51.160;4.146;2022-12-29T11:25:49;7.55;;;1.90;;
43345;SDS011;28937;51.160;4.146;2022-12-29T11:28:38;5.90;;;2.03;;
43345;SDS011;28937;51.160;4.146;2022-12-29T11:31:07;6.20;;;1.70;;
43345;SDS011;28937;51.160;4.146;2022-12-29T11:33:34;6.78;;;1.65;;
43345;SDS011;28937;51.160;4.146;2022-12-29T11:36:02;7.88;;;1.73;;
43345;SDS011;28937;51.160;4.146;2022-12-29T11:38:56;5.30;;;1.15;;
43345;SDS011;28937;51.160;4.146;2022-12-29T11:41:25;8.23;;;1.80;;
43345;SDS011;28937;51.160;4.146;2022-12-29T11:43:57;7.07;;;1.70;;
43345;SDS011;28937;51.160;4.146;2022-12-29T11:46:29;8.75;;;2.03;;
43345;SDS011;28937;51.160;4.146;2022-12-29T11:48:59;6.28;;;1.50;;
43345;SDS011;28937;51.160;4.146;2022-12-29T11:51:47;6.53;;;1.63;;
43345;SDS011;28937;51.160;4.146;2022-12-29T11:54:33;6.70;;;1.40;;
43345;SDS011;28937;51.160;4.146;2022-12-29T11:57:09;6.47;;;1.58;;
43345;SDS011;28937;51.160;4.146;2022-12-29T11:59:41;5.78;;;1.30;;
43345;SDS011;28937;51.160;4.146;2022-12-29T12:02:26;6.38;;;1.60;;
43345;SDS011;28937;51.160;4.146;2022-12-29T12:05:01;4.85;;;1.08;;
43345;SDS011;28937;51.160;4.146;2022-12-29T12:07:54;6.65;;;1.77;;
43345;SDS011;28937;51.160;4.146;2022-12-29T12:10:29;8.88;;;1.67;;
43345;SDS011;28937;51.160;4.146;2022-12-29T12:15:40;7.97;;;2.00;;
43345;SDS011;28937;51.160;4.146;2022-12-29T12:20:45;6.90;;;1.83;;
43345;SDS011;28937;51.160;4.146;2022-12-29T12:28:54;6.75;;;1.50;;
43345;SDS011;28937;51.160;4.146;2022-12-29T12:34:01;4.80;;;1.17;;
43345;SDS011;28937;51.160;4.146;2022-12-29T12:52:54;5.97;;;1.50;;
43345;SDS011;28937;51.160;4.146;2022-12-29T12:55:56;7.05;;;1.63;;
43345;SDS011;28937;51.160;4.146;2022-12-29T13:14:42;7.00;;;1.40;;
43345;SDS011;28937;51.160;4.146;2022-12-29T13:28:06;5.90;;;1.08;;
43345;SDS011;28937;51.160;4.146;2022-12-29T13:30:48;5.95;;;1.30;;
43345;SDS011;28937;51.160;4.146;2022-12-29T13:39:05;7.57;;;1.33;;
43345;SDS011;28937;51.160;4.146;2022-12-29T13:41:44;4.40;;;1.30;;
43345;SDS011;28937;51.160;4.146;2022-12-29T13:44:17;4.85;;;1.20;;
43345;SDS011;28937;51.160;4.146;2022-12-29T13:46:50;5.35;;;1.33;;
43345;SDS011;28937;51.160;4.146;2022-12-29T13:49:18;6.22;;;1.30;;
43345;SDS011;28937;51.160;4.146;2022-12-29T13:51:49;6.53;;;1.45;;
43345;SDS011;28937;51.160;4.146;2022-12-29T13:54:25;6.10;;;1.23;;
43345;SDS011;28937;51.160;4.146;2022-12-29T14:00:06;6.20;;;1.77;;
43345;SDS011;28937;51.160;4.146;2022-12-29T14:07:42;5.93;;;1.30;;
43345;SDS011;28937;51.160;4.146;2022-12-29T14:10:31;3.30;;;0.70;;
43345;SDS011;28937;51.160;4.146;2022-12-29T14:15:37;4.75;;;0.70;;
43345;SDS011;28937;51.160;4.146;2022-12-29T14:18:19;7.70;;;1.05;;
43345;SDS011;28937;51.160;4.146;2022-12-29T14:23:34;6.40;;;0.75;;
43345;SDS011;28937;51.160;4.146;2022-12-29T14:28:31;4.88;;;0.90;;
43345;SDS011;28937;51.160;4.146;2022-12-29T14:36:37;3.13;;;0.63;;
43345;SDS011;28937;51.160;4.146;2022-12-29T14:39:25;5.68;;;0.90;;
43345;SDS011;28937;51.160;4.146;2022-12-29T14:44:34;3.92;;;0.70;;
43345;SDS011;28937;51.160;4.146;2022-12-29T14:47:11;3.38;;;0.90;;
43345;SDS011;28937;51.160;4.146;2022-12-29T14:49:45;4.28;;;0.57;;
43345;SDS011;28937;51.160;4.146;2022-12-29T14:52:16;3.85;;;0.85;;
43345;SDS011;28937;51.160;4.146;2022-12-29T14:54:46;4.60;;;0.90;;
43345;SDS011;28937;51.160;4.146;2022-12-29T14:57:21;2.85;;;0.60;;
43345;SDS011;28937;51.160;4.146;2022-12-29T14:59:56;3.60;;;0.85;;
43345;SDS011;28937;51.160;4.146;2022-12-29T15:02:45;4.05;;;0.93;;
43345;SDS011;28937;51.160;4.146;2022-12-29T15:05:31;4.38;;;0.60;;
43345;SDS011;28937;51.160;4.146;2022-12-29T15:08:00;3.00;;;0.63;;
43345;SDS011;28937;51.160;4.146;2022-12-29T15:10:30;4.63;;;0.75;;
43345;SDS011;28937;51.160;4.146;2022-12-29T15:13:02;3.53;;;0.70;;
43345;SDS011;28937;51.160;4.146;2022-12-29T15:15:35;3.30;;;0.57;;
43345;SDS011;28937;51.160;4.146;2022-12-29T15:20:50;4.15;;;0.68;;
43345;SDS011;28937;51.160;4.146;2022-12-29T15:23:24;2.42;;;0.70;;
43345;SDS011;28937;51.160;4.146;2022-12-29T15:25:53;5.35;;;0.77;;
43345;SDS011;28937;51.160;4.146;2022-12-29T15:28:21;2.80;;;0.70;;
43345;SDS011;28937;51.160;4.146;2022-12-29T15:30:55;2.33;;;0.60;;
43345;SDS011;28937;51.160;4.146;2022-12-29T15:33:24;4.80;;;1.05;;
43345;SDS011;28937;51.160;4.146;2022-12-29T15:35:53;4.25;;;0.75;;
43345;SDS011;28937;51.160;4.146;2022-12-29T15:38:27;3.50;;;0.70;;
43345;SDS011;28937;51.160;4.146;2022-12-29T15:40:55;2.78;;;0.52;;
43345;SDS011;28937;51.160;4.146;2022-12-29T15:43:30;4.53;;;0.82;;
43345;SDS011;28937;51.160;4.146;2022-12-29T15:46:16;3.30;;;0.90;;
43345;SDS011;28937;51.160;4.146;2022-12-29T15:48:42;3.63;;;0.80;;
43345;SDS011;28937;51.160;4.146;2022-12-29T15:54:18;2.70;;;0.80;;
43345;SDS011;28937;51.160;4.146;2022-12-29T15:56:47;6.85;;;1.27;;
43345;SDS011;28937;51.160;4.146;2022-12-29T15:59:22;3.13;;;0.63;;
43345;SDS011;28937;51.160;4.146;2022-12-29T16:01:56;4.03;;;1.08;;
43345;SDS011;28937;51.160;4.146;2022-12-29T16:04:24;3.13;;;0.85;;
43345;SDS011;28937;51.160;4.146;2022-12-29T16:06:59;3.00;;;0.70;;
43345;SDS011;28937;51.160;4.146;2022-12-29T16:09:31;4.80;;;0.75;;
43345;SDS011;28937;51.160;4.146;2022-12-29T16:12:06;5.35;;;1.25;;
43345;SDS011;28937;51.160;4.146;2022-12-29T16:14:46;6.75;;;1.27;;
43345;SDS011;28937;51.160;4.146;2022-12-29T16:17:50;2.47;;;0.60;;
43345;SDS011;28937;51.160;4.146;2022-12-29T16:20:24;5.80;;;1.20;;
43345;SDS011;28937;51.160;4.146;2022-12-29T16:22:59;7.95;;;1.50;;
43345;SDS011;28937;51.160;4.146;2022-12-29T16:25:27;4.50;;;1.17;;
43345;SDS011;28937;51.160;4.146;2022-12-29T16:27:56;5.28;;;1.25;;
43345;SDS011;28937;51.160;4.146;2022-12-29T16:30:24;4.40;;;0.93;;
43345;SDS011;28937;51.160;4.146;2022-12-29T16:32:53;2.25;;;0.80;;
43345;SDS011;28937;51.160;4.146;2022-12-29T16:35:21;6.88;;;1.30;;
43345;SDS011;28937;51.160;4.146;2022-12-29T16:37:48;8.30;;;1.55;;
43345;SDS011;28937;51.160;4.146;2022-12-29T16:40:38;4.38;;;1.10;;
43345;SDS011;28937;51.160;4.146;2022-12-29T16:46:17;6.32;;;1.25;;
43345;SDS011;28937;51.160;4.146;2022-12-29T16:48:50;6.00;;;1.67;;
43345;SDS011;28937;51.160;4.146;2022-12-29T16:51:24;5.13;;;1.30;;
43345;SDS011;28937;51.160;4.146;2022-12-29T16:53:53;4.88;;;1.17;;
43345;SDS011;28937;51.160;4.146;2022-12-29T16:56:21;5.10;;;1.25;;
43345;SDS011;28937;51.160;4.146;2022-12-29T16:58:51;6.15;;;1.40;;
43345;SDS011;28937;51.160;4.146;2022-12-29T17:01:29;6.28;;;1.38;;
43345;SDS011;28937;51.160;4.146;2022-12-29T17:03:59;6.72;;;1.60;;
43345;SDS011;28937;51.160;4.146;2022-12-29T17:06:30;6.10;;;1.95;;
43345;SDS011;28937;51.160;4.146;2022-12-29T17:08:56;4.30;;;1.17;;
43345;SDS011;28937;51.160;4.146;2022-12-29T17:11:23;6.97;;;1.20;;
43345;SDS011;28937;51.160;4.146;2022-12-29T17:16:58;8.35;;;1.25;;
43345;SDS011;28937;51.160;4.146;2022-12-29T17:19:35;5.50;;;1.25;;
43345;SDS011;28937;51.160;4.146;2022-12-29T17:22:02;6.25;;;1.55;;
43345;SDS011;28937;51.160;4.146;2022-12-29T17:24:34;8.82;;;1.50;;
43345;SDS011;28937;51.160;4.146;2022-12-29T17:27:00;6.13;;;1.83;;
43345;SDS011;28937;51.160;4.146;2022-12-29T17:29:33;9.75;;;1.92;;
43345;SDS011;28937;51.160;4.146;2022-12-29T17:32:02;5.47;;;1.58;;
43345;SDS011;28937;51.160;4.146;2022-12-29T17:34:30;7.53;;;1.80;;
43345;SDS011;28937;51.160;4.146;2022-12-29T17:36:56;6.90;;;1.45;;
43345;SDS011;28937;51.160;4.146;2022-12-29T17:39:22;9.02;;;1.73;;
43345;SDS011;28937;51.160;4.146;2022-12-29T17:41:47;8.85;;;1.73;;
43345;SDS011;28937;51.160;4.146;2022-12-29T17:44:17;8.50;;;1.90;;
43345;SDS011;28937;51.160;4.146;2022-12-29T17:46:47;9.02;;;2.13;;
43345;SDS011;28937;51.160;4.146;2022-12-29T17:49:14;9.05;;;1.65;;